sensor_id;sensor_type;location;lat;lon;timestamp;P1;durP1;ratioP1;P2;durP2;ratioP2
78783;SDS011;68127;51.050;14.084;2023-12-14T00:01:26;13.82;;;6.80;;
78783;SDS011;68127;51.050;14.084;2023-12-14T00:03:52;13.98;;;6.82;;
78783;SDS011;68127;51.050;14.084;2023-12-14T00:06:17;10.27;;;6.30;;
78783;SDS011;68127;51.050;14.084;2023-12-14T00:08:42;12.75;;;7.05;;
78783;SDS011;68127;51.050;14.084;2023-12-14T00:11:08;10.10;;;6.18;;
78783;SDS011;68127;51.050;14.084;2023-12-14T00:13:34;11.23;;;6.63;;
78783;SDS011;68127;51.050;14.084;2023-12-14T00:15:59;12.57;;;6.15;;
78783;SDS011;68127;51.050;14.084;2023-12-14T00:18:25;12.30;;;6.45;;
78783;SDS011;68127;51.050;14.084;2023-12-14T00:20:50;13.38;;;7.10;;
78783;SDS011;68127;51.050;14.084;2023-12-14T00:23:16;12.48;;;7.05;;
78783;SDS011;68127;51.050;14.084;2023-12-14T00:25:41;10.88;;;6.63;;
78783;SDS011;68127;51.050;14.084;2023-12-14T00:28:06;13.27;;;6.80;;
78783;SDS011;68127;51.050;14.084;2023-12-14T00:30:31;13.00;;;7.18;;
78783;SDS011;68127;51.050;14.084;2023-12-14T00:32:57;13.07;;;7.00;;
78783;SDS011;68127;51.050;14.084;2023-12-14T00:35:22;13.35;;;7.50;;
78783;SDS011;68127;51.050;14.084;2023-12-14T00:37:47;15.85;;;8.10;;
78783;SDS011;68127;51.050;14.084;2023-12-14T00:40:12;14.48;;;7.50;;
78783;SDS011;68127;51.050;14.084;2023-12-14T00:42:38;14.73;;;7.38;;
78783;SDS011;68127;51.050;14.084;2023-12-14T00:45:03;13.00;;;7.40;;
78783;SDS011;68127;51.050;14.084;2023-12-14T00:47:28;15.63;;;7.50;;
78783;SDS011;68127;51.050;14.084;2023-12-14T00:49:54;14.23;;;7.65;;
78783;SDS011;68127;51.050;14.084;2023-12-14T00:52:19;14.25;;;6.80;;
78783;SDS011;68127;51.050;14.084;2023-12-14T00:54:44;13.02;;;7.43;;
78783;SDS011;68127;51.050;14.084;2023-12-14T00:57:09;13.40;;;7.13;;
78783;SDS011;68127;51.050;14.084;2023-12-14T00:59:35;13.60;;;7.20;;
78783;SDS011;68127;51.050;14.084;2023-12-14T01:02:00;13.07;;;6.60;;
78783;SDS011;68127;51.050;14.084;2023-12-14T01:04:25;11.57;;;6.50;;
78783;SDS011;68127;51.050;14.084;2023-12-14T01:06:50;12.75;;;7.30;;
78783;SDS011;68127;51.050;14.084;2023-12-14T01:09:16;13.27;;;7.68;;
78783;SDS011;68127;51.050;14.084;2023-12-14T01:11:41;12.02;;;6.95;;
78783;SDS011;68127;51.050;14.084;2023-12-14T01:14:06;12.52;;;6.88;;
78783;SDS011;68127;51.050;14.084;2023-12-14T01:16:32;11.57;;;6.05;;
78783;SDS011;68127;51.050;14.084;2023-12-14T01:18:57;11.63;;;6.88;;
78783;SDS011;68127;51.050;14.084;2023-12-14T01:21:22;12.73;;;6.28;;
78783;SDS011;68127;51.050;14.084;2023-12-14T01:23:48;11.85;;;6.25;;
78783;SDS011;68127;51.050;14.084;2023-12-14T01:26:14;9.98;;;5.90;;
78783;SDS011;68127;51.050;14.084;2023-12-14T01:28:39;9.23;;;5.80;;
78783;SDS011;68127;51.050;14.084;2023-12-14T01:31:04;10.75;;;6.10;;
78783;SDS011;68127;51.050;14.084;2023-12-14T01:33:29;12.25;;;6.70;;
78783;SDS011;68127;51.050;14.084;2023-12-14T01:35:55;11.13;;;6.20;;
78783;SDS011;68127;51.050;14.084;2023-12-14T01:38:20;9.77;;;5.88;;
78783;SDS011;68127;51.050;14.084;2023-12-14T01:40:45;10.95;;;6.03;;
78783;SDS011;68127;51.050;14.084;2023-12-14T01:43:10;10.90;;;5.95;;
78783;SDS011;68127;51.050;14.084;2023-12-14T01:45:36;11.95;;;6.57;;
78783;SDS011;68127;51.050;14.084;2023-12-14T01:48:02;11.48;;;6.93;;
78783;SDS011;68127;51.050;14.084;2023-12-14T01:50:28;11.55;;;7.25;;
78783;SDS011;68127;51.050;14.084;2023-12-14T01:52:53;12.30;;;6.43;;
78783;SDS011;68127;51.050;14.084;2023-12-14T01:55:18;10.85;;;6.30;;
78783;SDS011;68127;51.050;14.084;2023-12-14T01:57:43;10.93;;;5.47;;
78783;SDS011;68127;51.050;14.084;2023-12-14T02:00:12;9.18;;;5.30;;
78783;SDS011;68127;51.050;14.084;2023-12-14T02:02:44;10.48;;;5.15;;
78783;SDS011;68127;51.050;14.084;2023-12-14T02:05:09;12.70;;;6.68;;
78783;SDS011;68127;51.050;14.084;2023-12-14T02:07:34;11.18;;;6.32;;
78783;SDS011;68127;51.050;14.084;2023-12-14T02:10:00;10.45;;;6.45;;
78783;SDS011;68127;51.050;14.084;2023-12-14T02:12:25;12.40;;;6.47;;
78783;SDS011;68127;51.050;14.084;2023-12-14T02:14:50;10.93;;;6.32;;
78783;SDS011;68127;51.050;14.084;2023-12-14T02:17:15;9.27;;;5.50;;
78783;SDS011;68127;51.050;14.084;2023-12-14T02:19:41;10.13;;;5.95;;
78783;SDS011;68127;51.050;14.084;2023-12-14T02:22:06;13.25;;;6.97;;
78783;SDS011;68127;51.050;14.084;2023-12-14T02:24:31;9.98;;;6.30;;
78783;SDS011;68127;51.050;14.084;2023-12-14T02:26:56;10.93;;;6.43;;
78783;SDS011;68127;51.050;14.084;2023-12-14T02:29:22;10.65;;;6.00;;
78783;SDS011;68127;51.050;14.084;2023-12-14T02:31:48;9.77;;;6.07;;
78783;SDS011;68127;51.050;14.084;2023-12-14T02:34:13;10.23;;;5.65;;
78783;SDS011;68127;51.050;14.084;2023-12-14T02:36:38;9.82;;;5.82;;
78783;SDS011;68127;51.050;14.084;2023-12-14T02:39:03;9.57;;;5.63;;
78783;SDS011;68127;51.050;14.084;2023-12-14T02:41:29;12.50;;;5.45;;
78783;SDS011;68127;51.050;14.084;2023-12-14T02:43:54;10.60;;;5.38;;
78783;SDS011;68127;51.050;14.084;2023-12-14T02:46:19;10.80;;;5.88;;
78783;SDS011;68127;51.050;14.084;2023-12-14T02:48:45;10.10;;;5.65;;
78783;SDS011;68127;51.050;14.084;2023-12-14T02:51:13;10.52;;;5.82;;
78783;SDS011;68127;51.050;14.084;2023-12-14T02:53:39;9.30;;;5.47;;
78783;SDS011;68127;51.050;14.084;2023-12-14T02:56:04;10.40;;;5.97;;
78783;SDS011;68127;51.050;14.084;2023-12-14T02:58:30;11.13;;;6.40;;
78783;SDS011;68127;51.050;14.084;2023-12-14T03:00:55;12.43;;;6.70;;
78783;SDS011;68127;51.050;14.084;2023-12-14T03:03:20;12.63;;;6.80;;
78783;SDS011;68127;51.050;14.084;2023-12-14T03:05:46;13.98;;;7.65;;
78783;SDS011;68127;51.050;14.084;2023-12-14T03:08:11;13.65;;;8.10;;
78783;SDS011;68127;51.050;14.084;2023-12-14T03:10:36;13.88;;;8.15;;
78783;SDS011;68127;51.050;14.084;2023-12-14T03:13:01;16.17;;;8.75;;
78783;SDS011;68127;51.050;14.084;2023-12-14T03:15:27;15.73;;;9.00;;
78783;SDS011;68127;51.050;14.084;2023-12-14T03:17:52;19.90;;;10.25;;
78783;SDS011;68127;51.050;14.084;2023-12-14T03:20:17;16.05;;;9.10;;
78783;SDS011;68127;51.050;14.084;2023-12-14T03:22:42;11.88;;;7.35;;
78783;SDS011;68127;51.050;14.084;2023-12-14T03:25:09;13.55;;;7.82;;
78783;SDS011;68127;51.050;14.084;2023-12-14T03:27:35;12.73;;;7.20;;
78783;SDS011;68127;51.050;14.084;2023-12-14T03:30:00;11.70;;;7.10;;
78783;SDS011;68127;51.050;14.084;2023-12-14T03:32:25;12.02;;;7.38;;
78783;SDS011;68127;51.050;14.084;2023-12-14T03:34:51;13.23;;;6.72;;
78783;SDS011;68127;51.050;14.084;2023-12-14T03:37:16;11.65;;;7.05;;
78783;SDS011;68127;51.050;14.084;2023-12-14T03:39:41;12.90;;;6.65;;
78783;SDS011;68127;51.050;14.084;2023-12-14T03:42:06;12.13;;;6.35;;
78783;SDS011;68127;51.050;14.084;2023-12-14T03:44:32;12.32;;;7.00;;
78783;SDS011;68127;51.050;14.084;2023-12-14T03:46:57;13.68;;;7.63;;
78783;SDS011;68127;51.050;14.084;2023-12-14T03:49:23;11.95;;;7.20;;
78783;SDS011;68127;51.050;14.084;2023-12-14T03:51:48;14.63;;;8.40;;
78783;SDS011;68127;51.050;14.084;2023-12-14T03:54:13;12.27;;;6.82;;
78783;SDS011;68127;51.050;14.084;2023-12-14T03:56:38;12.90;;;6.85;;
78783;SDS011;68127;51.050;14.084;2023-12-14T03:59:04;12.68;;;6.78;;
78783;SDS011;68127;51.050;14.084;2023-12-14T04:01:29;13.85;;;7.30;;
78783;SDS011;68127;51.050;14.084;2023-12-14T04:03:54;13.25;;;7.38;;
78783;SDS011;68127;51.050;14.084;2023-12-14T04:06:19;13.63;;;7.43;;
78783;SDS011;68127;51.050;14.084;2023-12-14T04:08:45;12.95;;;7.53;;
78783;SDS011;68127;51.050;14.084;2023-12-14T04:11:10;13.35;;;7.20;;
78783;SDS011;68127;51.050;14.084;2023-12-14T04:13:35;12.90;;;7.57;;
78783;SDS011;68127;51.050;14.084;2023-12-14T04:16:01;15.45;;;7.60;;
78783;SDS011;68127;51.050;14.084;2023-12-14T04:18:26;14.23;;;7.78;;
78783;SDS011;68127;51.050;14.084;2023-12-14T04:20:52;12.98;;;7.35;;
78783;SDS011;68127;51.050;14.084;2023-12-14T04:23:17;14.02;;;7.00;;
78783;SDS011;68127;51.050;14.084;2023-12-14T04:25:43;15.48;;;7.20;;
78783;SDS011;68127;51.050;14.084;2023-12-14T04:28:08;13.15;;;7.18;;
78783;SDS011;68127;51.050;14.084;2023-12-14T04:30:33;14.23;;;7.97;;
78783;SDS011;68127;51.050;14.084;2023-12-14T04:32:59;14.25;;;7.18;;
78783;SDS011;68127;51.050;14.084;2023-12-14T04:35:24;18.98;;;8.70;;
78783;SDS011;68127;51.050;14.084;2023-12-14T04:37:49;13.18;;;7.57;;
78783;SDS011;68127;51.050;14.084;2023-12-14T04:40:15;14.00;;;7.80;;
78783;SDS011;68127;51.050;14.084;2023-12-14T04:42:40;15.60;;;8.98;;
78783;SDS011;68127;51.050;14.084;2023-12-14T04:45:05;15.55;;;8.88;;
78783;SDS011;68127;51.050;14.084;2023-12-14T04:47:31;18.50;;;9.32;;
78783;SDS011;68127;51.050;14.084;2023-12-14T04:49:56;18.73;;;9.15;;
78783;SDS011;68127;51.050;14.084;2023-12-14T04:52:22;19.60;;;9.25;;
78783;SDS011;68127;51.050;14.084;2023-12-14T04:54:47;18.17;;;9.43;;
78783;SDS011;68127;51.050;14.084;2023-12-14T04:57:12;18.98;;;9.40;;
78783;SDS011;68127;51.050;14.084;2023-12-14T04:59:40;19.33;;;10.82;;
78783;SDS011;68127;51.050;14.084;2023-12-14T05:02:06;22.50;;;11.52;;
78783;SDS011;68127;51.050;14.084;2023-12-14T05:04:31;23.17;;;11.00;;
78783;SDS011;68127;51.050;14.084;2023-12-14T05:06:57;21.75;;;10.85;;
78783;SDS011;68127;51.050;14.084;2023-12-14T05:09:22;24.63;;;11.20;;
78783;SDS011;68127;51.050;14.084;2023-12-14T05:11:47;26.88;;;12.00;;
78783;SDS011;68127;51.050;14.084;2023-12-14T05:14:12;26.90;;;12.32;;
78783;SDS011;68127;51.050;14.084;2023-12-14T05:16:38;23.38;;;12.88;;
78783;SDS011;68127;51.050;14.084;2023-12-14T05:19:04;25.42;;;12.75;;
78783;SDS011;68127;51.050;14.084;2023-12-14T05:21:29;24.45;;;11.80;;
78783;SDS011;68127;51.050;14.084;2023-12-14T05:23:54;25.27;;;12.75;;
78783;SDS011;68127;51.050;14.084;2023-12-14T05:26:20;30.20;;;11.85;;
78783;SDS011;68127;51.050;14.084;2023-12-14T05:28:45;30.60;;;12.43;;
78783;SDS011;68127;51.050;14.084;2023-12-14T05:31:10;26.30;;;12.10;;
78783;SDS011;68127;51.050;14.084;2023-12-14T05:33:39;26.15;;;11.13;;
78783;SDS011;68127;51.050;14.084;2023-12-14T05:36:04;30.55;;;12.45;;
78783;SDS011;68127;51.050;14.084;2023-12-14T05:38:34;21.33;;;11.30;;
78783;SDS011;68127;51.050;14.084;2023-12-14T05:40:59;23.38;;;11.20;;
78783;SDS011;68127;51.050;14.084;2023-12-14T05:43:25;26.70;;;11.98;;
78783;SDS011;68127;51.050;14.084;2023-12-14T05:45:50;24.35;;;12.27;;
78783;SDS011;68127;51.050;14.084;2023-12-14T05:48:15;24.30;;;11.40;;
78783;SDS011;68127;51.050;14.084;2023-12-14T05:50:40;27.30;;;12.02;;
78783;SDS011;68127;51.050;14.084;2023-12-14T05:53:06;30.13;;;11.82;;
78783;SDS011;68127;51.050;14.084;2023-12-14T05:55:31;31.48;;;12.82;;
78783;SDS011;68127;51.050;14.084;2023-12-14T05:57:56;32.08;;;13.98;;
78783;SDS011;68127;51.050;14.084;2023-12-14T06:00:22;32.60;;;13.48;;
78783;SDS011;68127;51.050;14.084;2023-12-14T06:02:47;37.72;;;14.45;;
78783;SDS011;68127;51.050;14.084;2023-12-14T06:05:12;30.92;;;15.13;;
78783;SDS011;68127;51.050;14.084;2023-12-14T06:07:38;29.17;;;13.80;;
78783;SDS011;68127;51.050;14.084;2023-12-14T06:10:03;45.25;;;15.45;;
78783;SDS011;68127;51.050;14.084;2023-12-14T06:12:28;34.00;;;13.45;;
78783;SDS011;68127;51.050;14.084;2023-12-14T06:14:54;33.63;;;14.50;;
78783;SDS011;68127;51.050;14.084;2023-12-14T06:17:19;36.50;;;14.43;;
78783;SDS011;68127;51.050;14.084;2023-12-14T06:19:44;60.72;;;15.13;;
78783;SDS011;68127;51.050;14.084;2023-12-14T06:22:10;47.38;;;15.18;;
78783;SDS011;68127;51.050;14.084;2023-12-14T06:24:35;44.80;;;14.88;;
78783;SDS011;68127;51.050;14.084;2023-12-14T06:27:00;33.85;;;14.95;;
78783;SDS011;68127;51.050;14.084;2023-12-14T06:29:25;31.05;;;14.15;;
78783;SDS011;68127;51.050;14.084;2023-12-14T06:31:51;47.65;;;14.90;;
78783;SDS011;68127;51.050;14.084;2023-12-14T06:34:16;75.82;;;15.27;;
78783;SDS011;68127;51.050;14.084;2023-12-14T06:36:42;32.17;;;14.25;;
78783;SDS011;68127;51.050;14.084;2023-12-14T06:39:08;42.30;;;14.63;;
78783;SDS011;68127;51.050;14.084;2023-12-14T06:41:34;38.83;;;14.90;;
78783;SDS011;68127;51.050;14.084;2023-12-14T06:43:59;37.60;;;14.60;;
78783;SDS011;68127;51.050;14.084;2023-12-14T06:46:25;39.75;;;14.32;;
78783;SDS011;68127;51.050;14.084;2023-12-14T06:48:50;109.00;;;17.30;;
78783;SDS011;68127;51.050;14.084;2023-12-14T06:51:15;49.53;;;13.88;;
78783;SDS011;68127;51.050;14.084;2023-12-14T06:53:41;131.02;;;15.30;;
78783;SDS011;68127;51.050;14.084;2023-12-14T06:56:07;99.68;;;14.50;;
78783;SDS011;68127;51.050;14.084;2023-12-14T06:58:36;75.00;;;13.23;;
78783;SDS011;68127;51.050;14.084;2023-12-14T07:01:03;49.28;;;12.35;;
78783;SDS011;68127;51.050;14.084;2023-12-14T07:03:28;80.90;;;12.82;;
78783;SDS011;68127;51.050;14.084;2023-12-14T07:05:53;21.45;;;10.77;;
78783;SDS011;68127;51.050;14.084;2023-12-14T07:08:19;24.05;;;10.23;;
78783;SDS011;68127;51.050;14.084;2023-12-14T07:10:44;23.90;;;10.38;;
78783;SDS011;68127;51.050;14.084;2023-12-14T07:13:09;90.05;;;11.82;;
78783;SDS011;68127;51.050;14.084;2023-12-14T07:15:34;21.23;;;9.85;;
78783;SDS011;68127;51.050;14.084;2023-12-14T07:18:00;94.55;;;13.20;;
78783;SDS011;68127;51.050;14.084;2023-12-14T07:20:25;17.98;;;8.82;;
78783;SDS011;68127;51.050;14.084;2023-12-14T07:22:51;25.40;;;9.15;;
78783;SDS011;68127;51.050;14.084;2023-12-14T07:25:17;32.08;;;8.75;;
78783;SDS011;68127;51.050;14.084;2023-12-14T07:27:42;23.75;;;9.40;;
78783;SDS011;68127;51.050;14.084;2023-12-14T07:30:08;34.58;;;8.73;;
78783;SDS011;68127;51.050;14.084;2023-12-14T07:32:34;24.40;;;7.35;;
78783;SDS011;68127;51.050;14.084;2023-12-14T07:34:59;19.42;;;7.50;;
78783;SDS011;68127;51.050;14.084;2023-12-14T07:37:25;15.65;;;8.10;;
78783;SDS011;68127;51.050;14.084;2023-12-14T07:39:50;23.65;;;7.53;;
78783;SDS011;68127;51.050;14.084;2023-12-14T07:42:15;19.60;;;6.82;;
78783;SDS011;68127;51.050;14.084;2023-12-14T07:44:44;15.25;;;7.00;;
78783;SDS011;68127;51.050;14.084;2023-12-14T07:47:10;14.50;;;6.82;;
78783;SDS011;68127;51.050;14.084;2023-12-14T07:49:35;15.50;;;7.20;;
78783;SDS011;68127;51.050;14.084;2023-12-14T07:52:00;11.93;;;6.72;;
78783;SDS011;68127;51.050;14.084;2023-12-14T07:54:25;11.45;;;5.95;;
78783;SDS011;68127;51.050;14.084;2023-12-14T07:56:51;11.27;;;6.53;;
78783;SDS011;68127;51.050;14.084;2023-12-14T07:59:17;12.48;;;6.68;;
78783;SDS011;68127;51.050;14.084;2023-12-14T08:01:42;29.00;;;7.38;;
78783;SDS011;68127;51.050;14.084;2023-12-14T08:04:07;27.65;;;7.57;;
78783;SDS011;68127;51.050;14.084;2023-12-14T08:06:33;14.23;;;7.15;;
78783;SDS011;68127;51.050;14.084;2023-12-14T08:08:58;17.38;;;6.50;;
78783;SDS011;68127;51.050;14.084;2023-12-14T08:11:23;35.45;;;7.03;;
78783;SDS011;68127;51.050;14.084;2023-12-14T08:13:49;14.13;;;6.68;;
78783;SDS011;68127;51.050;14.084;2023-12-14T08:16:14;11.43;;;6.22;;
78783;SDS011;68127;51.050;14.084;2023-12-14T08:18:42;18.95;;;6.03;;
78783;SDS011;68127;51.050;14.084;2023-12-14T08:21:09;12.02;;;5.47;;
78783;SDS011;68127;51.050;14.084;2023-12-14T08:23:34;13.95;;;6.47;;
78783;SDS011;68127;51.050;14.084;2023-12-14T08:26:01;10.45;;;5.75;;
78783;SDS011;68127;51.050;14.084;2023-12-14T08:28:26;10.48;;;6.00;;
78783;SDS011;68127;51.050;14.084;2023-12-14T08:30:51;11.10;;;6.22;;
78783;SDS011;68127;51.050;14.084;2023-12-14T08:33:23;11.80;;;6.40;;
78783;SDS011;68127;51.050;14.084;2023-12-14T08:35:49;13.70;;;6.88;;
78783;SDS011;68127;51.050;14.084;2023-12-14T08:38:15;14.30;;;6.13;;
78783;SDS011;68127;51.050;14.084;2023-12-14T08:40:41;12.13;;;6.95;;
78783;SDS011;68127;51.050;14.084;2023-12-14T08:43:06;12.50;;;6.43;;
78783;SDS011;68127;51.050;14.084;2023-12-14T08:45:31;18.70;;;6.78;;
78783;SDS011;68127;51.050;14.084;2023-12-14T08:47:57;16.17;;;7.63;;
78783;SDS011;68127;51.050;14.084;2023-12-14T08:50:22;12.73;;;7.25;;
78783;SDS011;68127;51.050;14.084;2023-12-14T08:52:47;16.08;;;8.27;;
78783;SDS011;68127;51.050;14.084;2023-12-14T08:55:13;46.20;;;18.35;;
78783;SDS011;68127;51.050;14.084;2023-12-14T08:57:39;22.92;;;12.13;;
78783;SDS011;68127;51.050;14.084;2023-12-14T09:00:04;22.15;;;8.52;;
78783;SDS011;68127;51.050;14.084;2023-12-14T09:02:31;25.92;;;8.70;;
78783;SDS011;68127;51.050;14.084;2023-12-14T09:04:56;22.35;;;8.30;;
78783;SDS011;68127;51.050;14.084;2023-12-14T09:07:22;22.77;;;8.77;;
78783;SDS011;68127;51.050;14.084;2023-12-14T09:09:47;28.85;;;8.82;;
78783;SDS011;68127;51.050;14.084;2023-12-14T09:12:12;13.75;;;7.57;;
78783;SDS011;68127;51.050;14.084;2023-12-14T09:14:38;15.63;;;7.95;;
78783;SDS011;68127;51.050;14.084;2023-12-14T09:17:03;14.95;;;7.88;;
78783;SDS011;68127;51.050;14.084;2023-12-14T09:19:31;17.50;;;9.02;;
78783;SDS011;68127;51.050;14.084;2023-12-14T09:21:56;17.33;;;9.10;;
78783;SDS011;68127;51.050;14.084;2023-12-14T09:24:22;11.55;;;6.82;;
78783;SDS011;68127;51.050;14.084;2023-12-14T09:26:47;14.20;;;7.57;;
78783;SDS011;68127;51.050;14.084;2023-12-14T09:29:13;15.48;;;8.38;;
78783;SDS011;68127;51.050;14.084;2023-12-14T09:31:42;13.45;;;7.43;;
78783;SDS011;68127;51.050;14.084;2023-12-14T09:34:08;19.40;;;7.22;;
78783;SDS011;68127;51.050;14.084;2023-12-14T09:36:34;11.68;;;6.28;;
78783;SDS011;68127;51.050;14.084;2023-12-14T09:38:59;12.35;;;5.63;;
78783;SDS011;68127;51.050;14.084;2023-12-14T09:41:25;14.45;;;6.85;;
78783;SDS011;68127;51.050;14.084;2023-12-14T09:43:50;10.65;;;5.85;;
78783;SDS011;68127;51.050;14.084;2023-12-14T09:46:17;10.55;;;5.65;;
78783;SDS011;68127;51.050;14.084;2023-12-14T09:48:42;9.30;;;4.93;;
78783;SDS011;68127;51.050;14.084;2023-12-14T09:51:07;8.57;;;4.53;;
78783;SDS011;68127;51.050;14.084;2023-12-14T09:53:33;7.32;;;4.03;;
78783;SDS011;68127;51.050;14.084;2023-12-14T09:55:58;8.48;;;3.97;;
78783;SDS011;68127;51.050;14.084;2023-12-14T09:58:23;7.10;;;4.03;;
78783;SDS011;68127;51.050;14.084;2023-12-14T10:00:49;7.45;;;3.97;;
78783;SDS011;68127;51.050;14.084;2023-12-14T10:03:17;6.90;;;3.78;;
78783;SDS011;68127;51.050;14.084;2023-12-14T10:05:46;5.70;;;3.20;;
78783;SDS011;68127;51.050;14.084;2023-12-14T10:08:13;8.10;;;3.72;;
78783;SDS011;68127;51.050;14.084;2023-12-14T10:10:38;7.35;;;3.13;;
78783;SDS011;68127;51.050;14.084;2023-12-14T10:13:04;6.40;;;3.00;;
78783;SDS011;68127;51.050;14.084;2023-12-14T10:15:29;6.13;;;2.70;;
78783;SDS011;68127;51.050;14.084;2023-12-14T10:17:55;6.28;;;3.10;;
78783;SDS011;68127;51.050;14.084;2023-12-14T10:20:20;6.15;;;2.60;;
78783;SDS011;68127;51.050;14.084;2023-12-14T10:22:50;5.15;;;2.80;;
78783;SDS011;68127;51.050;14.084;2023-12-14T10:25:18;6.00;;;2.70;;
78783;SDS011;68127;51.050;14.084;2023-12-14T10:27:46;6.30;;;2.80;;
78783;SDS011;68127;51.050;14.084;2023-12-14T10:30:11;4.66;;;2.78;;
78783;SDS011;68127;51.050;14.084;2023-12-14T10:32:37;4.88;;;2.65;;
78783;SDS011;68127;51.050;14.084;2023-12-14T10:35:03;5.57;;;2.85;;
78783;SDS011;68127;51.050;14.084;2023-12-14T10:37:28;7.90;;;3.15;;
78783;SDS011;68127;51.050;14.084;2023-12-14T10:39:54;5.90;;;2.83;;
78783;SDS011;68127;51.050;14.084;2023-12-14T10:42:20;6.25;;;2.80;;
78783;SDS011;68127;51.050;14.084;2023-12-14T10:44:47;5.55;;;2.70;;
78783;SDS011;68127;51.050;14.084;2023-12-14T10:47:14;5.97;;;2.83;;
78783;SDS011;68127;51.050;14.084;2023-12-14T10:49:40;6.68;;;3.08;;
78783;SDS011;68127;51.050;14.084;2023-12-14T10:52:06;6.05;;;2.70;;
78783;SDS011;68127;51.050;14.084;2023-12-14T10:54:31;5.55;;;2.65;;
78783;SDS011;68127;51.050;14.084;2023-12-14T10:56:57;4.75;;;2.60;;
78783;SDS011;68127;51.050;14.084;2023-12-14T10:59:23;5.00;;;2.75;;
78783;SDS011;68127;51.050;14.084;2023-12-14T11:01:52;5.95;;;2.97;;
78783;SDS011;68127;51.050;14.084;2023-12-14T11:04:18;5.68;;;2.78;;
78783;SDS011;68127;51.050;14.084;2023-12-14T11:06:46;7.43;;;3.35;;
78783;SDS011;68127;51.050;14.084;2023-12-14T11:09:13;7.57;;;3.30;;
78783;SDS011;68127;51.050;14.084;2023-12-14T11:14:05;12.05;;;3.28;;
78783;SDS011;68127;51.050;14.084;2023-12-14T11:16:33;11.63;;;3.88;;
78783;SDS011;68127;51.050;14.084;2023-12-14T11:24:24;5.35;;;2.80;;
78783;SDS011;68127;51.050;14.084;2023-12-14T11:26:50;6.80;;;3.28;;
78783;SDS011;68127;51.050;14.084;2023-12-14T11:29:19;8.07;;;4.20;;
78783;SDS011;68127;51.050;14.084;2023-12-14T11:31:44;7.55;;;3.92;;
78783;SDS011;68127;51.050;14.084;2023-12-14T11:34:10;7.03;;;4.00;;
78783;SDS011;68127;51.050;14.084;2023-12-14T11:36:36;7.13;;;3.60;;
78783;SDS011;68127;51.050;14.084;2023-12-14T11:39:04;6.95;;;3.60;;
78783;SDS011;68127;51.050;14.084;2023-12-14T11:41:30;8.77;;;4.57;;
78783;SDS011;68127;51.050;14.084;2023-12-14T11:43:56;8.20;;;4.20;;
78783;SDS011;68127;51.050;14.084;2023-12-14T11:46:21;9.30;;;4.82;;
78783;SDS011;68127;51.050;14.084;2023-12-14T11:48:47;9.07;;;4.57;;
78783;SDS011;68127;51.050;14.084;2023-12-14T11:51:13;7.30;;;3.85;;
78783;SDS011;68127;51.050;14.084;2023-12-14T11:53:40;8.93;;;4.32;;
78783;SDS011;68127;51.050;14.084;2023-12-14T11:59:14;9.48;;;4.35;;
78783;SDS011;68127;51.050;14.084;2023-12-14T12:01:56;10.00;;;4.30;;
78783;SDS011;68127;51.050;14.084;2023-12-14T12:04:25;8.68;;;3.97;;
78783;SDS011;68127;51.050;14.084;2023-12-14T12:06:58;9.40;;;4.50;;
78783;SDS011;68127;51.050;14.084;2023-12-14T12:12:04;9.57;;;3.88;;
78783;SDS011;68127;51.050;14.084;2023-12-14T12:14:30;10.40;;;4.50;;
78783;SDS011;68127;51.050;14.084;2023-12-14T12:16:55;9.63;;;4.68;;
78783;SDS011;68127;51.050;14.084;2023-12-14T12:19:21;8.85;;;4.00;;
78783;SDS011;68127;51.050;14.084;2023-12-14T12:21:46;8.50;;;4.10;;
78783;SDS011;68127;51.050;14.084;2023-12-14T12:24:11;8.60;;;4.30;;
78783;SDS011;68127;51.050;14.084;2023-12-14T12:26:37;13.95;;;5.20;;
78783;SDS011;68127;51.050;14.084;2023-12-14T12:29:02;14.07;;;4.30;;
78783;SDS011;68127;51.050;14.084;2023-12-14T12:31:31;9.07;;;4.32;;
78783;SDS011;68127;51.050;14.084;2023-12-14T12:33:57;10.32;;;4.25;;
78783;SDS011;68127;51.050;14.084;2023-12-14T12:36:22;10.15;;;4.95;;
78783;SDS011;68127;51.050;14.084;2023-12-14T12:38:47;8.85;;;4.28;;
78783;SDS011;68127;51.050;14.084;2023-12-14T12:41:12;7.95;;;4.47;;
78783;SDS011;68127;51.050;14.084;2023-12-14T12:43:38;10.88;;;4.85;;
78783;SDS011;68127;51.050;14.084;2023-12-14T12:46:03;19.55;;;5.43;;
78783;SDS011;68127;51.050;14.084;2023-12-14T12:48:28;11.68;;;5.18;;
78783;SDS011;68127;51.050;14.084;2023-12-14T12:50:54;10.18;;;5.13;;
78783;SDS011;68127;51.050;14.084;2023-12-14T12:53:20;13.15;;;5.03;;
78783;SDS011;68127;51.050;14.084;2023-12-14T12:55:45;11.63;;;5.55;;
78783;SDS011;68127;51.050;14.084;2023-12-14T12:58:10;8.85;;;4.43;;
78783;SDS011;68127;51.050;14.084;2023-12-14T13:00:35;11.25;;;4.90;;
78783;SDS011;68127;51.050;14.084;2023-12-14T13:03:02;11.48;;;4.72;;
78783;SDS011;68127;51.050;14.084;2023-12-14T13:05:28;12.02;;;5.55;;
78783;SDS011;68127;51.050;14.084;2023-12-14T13:07:53;11.05;;;4.93;;
78783;SDS011;68127;51.050;14.084;2023-12-14T13:10:19;13.50;;;5.55;;
78783;SDS011;68127;51.050;14.084;2023-12-14T13:12:47;14.93;;;6.35;;
78783;SDS011;68127;51.050;14.084;2023-12-14T13:15:12;14.30;;;6.75;;
78783;SDS011;68127;51.050;14.084;2023-12-14T13:17:38;18.80;;;7.07;;
78783;SDS011;68127;51.050;14.084;2023-12-14T13:20:03;13.95;;;6.63;;
78783;SDS011;68127;51.050;14.084;2023-12-14T13:22:31;19.90;;;6.57;;
78783;SDS011;68127;51.050;14.084;2023-12-14T13:24:56;14.95;;;6.97;;
78783;SDS011;68127;51.050;14.084;2023-12-14T13:27:22;13.75;;;6.80;;
78783;SDS011;68127;51.050;14.084;2023-12-14T13:29:49;14.98;;;7.15;;
78783;SDS011;68127;51.050;14.084;2023-12-14T13:32:14;60.17;;;7.70;;
78783;SDS011;68127;51.050;14.084;2023-12-14T13:34:39;15.15;;;6.63;;
78783;SDS011;68127;51.050;14.084;2023-12-14T13:37:05;20.92;;;7.28;;
78783;SDS011;68127;51.050;14.084;2023-12-14T13:39:30;15.27;;;6.93;;
78783;SDS011;68127;51.050;14.084;2023-12-14T13:41:58;23.05;;;7.32;;
78783;SDS011;68127;51.050;14.084;2023-12-14T13:44:23;114.78;;;9.82;;
78783;SDS011;68127;51.050;14.084;2023-12-14T13:46:49;28.05;;;8.20;;
78783;SDS011;68127;51.050;14.084;2023-12-14T13:49:14;16.73;;;7.95;;
78783;SDS011;68127;51.050;14.084;2023-12-14T13:51:39;14.65;;;7.05;;
78783;SDS011;68127;51.050;14.084;2023-12-14T13:54:04;15.65;;;7.78;;
78783;SDS011;68127;51.050;14.084;2023-12-14T13:56:30;13.85;;;7.18;;
78783;SDS011;68127;51.050;14.084;2023-12-14T13:58:55;13.73;;;6.68;;
78783;SDS011;68127;51.050;14.084;2023-12-14T14:01:20;12.98;;;6.60;;
78783;SDS011;68127;51.050;14.084;2023-12-14T14:03:46;13.98;;;6.22;;
78783;SDS011;68127;51.050;14.084;2023-12-14T14:06:12;15.38;;;5.53;;
78783;SDS011;68127;51.050;14.084;2023-12-14T14:08:37;10.57;;;5.03;;
78783;SDS011;68127;51.050;14.084;2023-12-14T14:11:03;11.82;;;5.53;;
78783;SDS011;68127;51.050;14.084;2023-12-14T14:13:28;13.00;;;5.57;;
78783;SDS011;68127;51.050;14.084;2023-12-14T14:15:54;10.32;;;5.03;;
78783;SDS011;68127;51.050;14.084;2023-12-14T14:18:19;11.98;;;5.38;;
78783;SDS011;68127;51.050;14.084;2023-12-14T14:20:44;8.00;;;4.28;;
78783;SDS011;68127;51.050;14.084;2023-12-14T14:23:10;10.80;;;5.28;;
78783;SDS011;68127;51.050;14.084;2023-12-14T14:25:35;9.73;;;5.10;;